Time;durP1;ratioP1;P1;durP2;ratioP2;P2;SDS_P1;SDS_P2;PMS_P1;PMS_P2;Temp;Humidity;BMP_temperature;BMP_pressure;BME280_temperature;BME280_humidity;BME280_pressure;Samples;Min_cycle;Max_cycle;Signal;HPM_P1;HPM_P2
2022/10/01 00:00:52;;;;;;;5.88;4.45;;;12.00;99.90;;;;;;4935992;29;20048;-82
2022/10/01 00:03:18;;;;;;;5.80;4.75;;;11.80;99.90;;;;;;4937053;29;20044;-82
2022/10/01 00:05:44;;;;;;;7.25;4.72;;;11.60;99.90;;;;;;4937701;29;20052;-82
2022/10/01 00:08:12;;;;;;;7.10;5.13;;;11.60;99.90;;;;;;4937888;29;20047;-82
2022/10/01 00:10:44;;;;;;;7.60;5.45;;;11.60;99.90;;;;;;4937816;29;20047;-81
2022/10/01 00:13:10;;;;;;;6.90;4.80;;;11.60;99.90;;;;;;4921266;29;20183;-81
2022/10/01 00:15:39;;;;;;;5.97;5.30;;;11.50;99.90;;;;;;4937768;29;20079;-82
2022/10/01 00:18:04;;;;;;;6.85;5.32;;;11.50;99.90;;;;;;4937109;29;20052;-82
2022/10/01 00:20:30;;;;;;;8.27;6.50;;;11.40;99.90;;;;;;4936782;29;20067;-82
2022/10/01 00:22:55;;;;;;;7.90;5.78;;;11.80;99.90;;;;;;4936420;29;20051;-83
2022/10/01 00:25:24;;;;;;;7.68;6.00;;;11.40;99.90;;;;;;4936916;29;20448;-83
2022/10/01 00:27:50;;;;;;;7.18;5.15;;;11.30;99.90;;;;;;4936271;29;20048;-83
2022/10/01 00:30:16;;;;;;;7.15;5.70;;;11.20;99.90;;;;;;4937782;29;20054;-82
2022/10/01 00:32:42;;;;;;;6.13;5.40;;;11.20;99.90;;;;;;4936771;29;20130;-82
2022/10/01 00:35:08;;;;;;;8.73;5.43;;;11.20;99.90;;;;;;4936490;29;20526;-83
2022/10/01 00:37:36;;;;;;;7.78;6.97;;;11.50;99.90;;;;;;4936372;29;20093;-82
2022/10/01 00:40:05;;;;;;;6.72;5.78;;;11.10;99.90;;;;;;4937677;29;20052;-83
2022/10/01 00:42:31;;;;;;;7.40;5.25;;;11.10;99.90;;;;;;4937260;29;20055;-82
2022/10/01 00:45:01;;;;;;;6.85;6.10;;;11.10;99.90;;;;;;4920588;29;20051;-83
2022/10/01 00:47:35;;;;;;;8.25;6.20;;;11.00;99.90;;;;;;4935941;29;20106;-82
2022/10/01 00:50:23;;;;;;;8.30;5.63;;;11.00;99.90;;;;;;4937113;29;20044;-83
2022/10/01 00:52:54;;;;;;;7.10;5.93;;;11.00;99.90;;;;;;4937067;29;20098;-83
2022/10/01 00:55:35;;;;;;;11.32;6.85;;;11.00;99.90;;;;;;4937090;29;20284;-83
2022/10/01 00:58:02;;;;;;;8.05;6.40;;;10.90;99.90;;;;;;4937224;29;20090;-82
2022/10/01 01:00:29;;;;;;;8.82;6.90;;;10.90;99.90;;;;;;4935969;29;20047;-83
2022/10/01 01:02:54;;;;;;;9.98;6.80;;;10.70;99.90;;;;;;4936938;29;20499;-82
2022/10/01 01:05:20;;;;;;;10.23;6.57;;;10.90;99.90;;;;;;4936141;29;20035;-83
2022/10/01 01:07:48;;;;;;;7.88;6.43;;;10.90;99.90;;;;;;4936029;29;20114;-84
2022/10/01 01:10:18;;;;;;;8.00;7.20;;;10.80;99.90;;;;;;4935856;29;20527;-82
2022/10/01 01:12:58;;;;;;;8.05;6.43;;;10.80;99.90;;;;;;4935702;29;20501;-84
2022/10/01 01:15:30;;;;;;;9.10;7.15;;;10.80;99.90;;;;;;4936861;29;20051;-82
2022/10/01 01:17:58;;;;;;;8.40;6.85;;;10.80;99.90;;;;;;4936822;29;20062;-83
2022/10/01 01:20:47;;;;;;;8.18;6.57;;;10.80;99.90;;;;;;4936732;29;20146;-84
2022/10/01 01:23:16;;;;;;;9.35;6.45;;;10.80;99.90;;;;;;4936039;29;20106;-83
2022/10/01 01:25:52;;;;;;;7.72;6.70;;;10.80;99.90;;;;;;4935308;29;20039;-84
2022/10/01 01:28:30;;;;;;;7.55;6.65;;;10.80;99.90;;;;;;4920043;29;20050;-84
2022/10/01 01:30:59;;;;;;;9.90;6.95;;;10.80;99.90;;;;;;4919934;29;20572;-84
2022/10/01 01:33:29;;;;;;;8.63;6.30;;;10.80;99.90;;;;;;4935580;29;20372;-84
2022/10/01 01:36:05;;;;;;;8.73;6.70;;;10.80;99.90;;;;;;4936458;29;20058;-83
2022/10/01 01:38:38;;;;;;;9.95;6.22;;;10.80;99.90;;;;;;4935810;29;20043;-83
2022/10/01 01:41:05;;;;;;;8.75;6.40;;;10.70;99.90;;;;;;4935367;29;20051;-84
2022/10/01 01:43:33;;;;;;;;;;;10.70;99.90;;;;;;4936058;29;20392;-84
2022/10/01 01:46:02;;;;;;;6.25;5.63;;;10.80;99.90;;;;;;4935098;29;19923;-85
2022/10/01 01:48:29;;;;;;;8.40;6.53;;;10.70;99.90;;;;;;4936396;29;20051;-83
2022/10/01 01:51:19;;;;;;;9.75;6.82;;;10.70;99.90;;;;;;4936448;29;20403;-83
2022/10/01 01:53:45;;;;;;;10.82;6.90;;;10.70;99.90;;;;;;4935645;29;20388;-84
2022/10/01 01:56:10;;;;;;;8.52;6.25;;;10.70;99.90;;;;;;4936340;29;20048;-84
2022/10/01 01:58:37;;;;;;;12.00;6.38;;;10.70;99.90;;;;;;4919359;29;20047;-84
2022/10/01 02:01:03;;;;;;;7.55;6.18;;;10.70;99.90;;;;;;4936222;29;20095;-83
2022/10/01 02:03:32;;;;;;;10.60;7.17;;;11.20;99.90;;;;;;4935370;29;20039;-84
2022/10/01 02:06:33;;;;;;;9.02;6.63;;;10.70;99.90;;;;;;4936212;29;20094;-84
2022/10/01 02:09:13;;;;;;;9.30;7.05;;;10.70;99.90;;;;;;4920343;29;20164;-84
2022/10/01 02:11:57;;;;;;;8.65;6.78;;;10.70;99.90;;;;;;4934960;29;20052;-84
2022/10/01 02:14:23;;;;;;;9.40;7.88;;;10.60;99.90;;;;;;4935466;29;20056;-85
2022/10/01 02:17:28;;;;;;;12.05;8.93;;;10.90;99.90;;;;;;4936143;29;20042;-84
2022/10/01 02:20:20;;;;;;;8.32;6.82;;;10.70;99.90;;;;;;4906810;29;20062;-85
2022/10/01 02:22:51;;;;;;;12.32;7.30;;;10.60;99.90;;;;;;4935216;29;20120;-85
2022/10/01 02:25:18;;;;;;;8.25;6.55;;;10.60;99.90;;;;;;4938352;29;20047;-83
2022/10/01 02:27:51;;;;;;;8.43;6.90;;;11.40;99.90;;;;;;4939605;29;20043;-84
2022/10/01 02:30:17;;;;;;;10.95;7.53;;;10.60;99.90;;;;;;4938741;29;20047;-83
2022/10/01 02:32:45;;;;;;;8.68;7.10;;;10.70;99.90;;;;;;4938760;29;20048;-85
2022/10/01 02:35:15;;;;;;;9.20;7.53;;;10.60;99.90;;;;;;4938836;29;20047;-83
2022/10/01 02:37:43;;;;;;;9.02;7.07;;;10.60;99.90;;;;;;4938633;29;20507;-84
2022/10/01 02:40:14;;;;;;;8.82;6.88;;;10.60;99.90;;;;;;4938347;29;20135;-84
2022/10/01 02:42:47;;;;;;;9.75;7.43;;;10.60;99.90;;;;;;4938266;29;20069;-84
2022/10/01 02:45:17;;;;;;;8.40;6.45;;;10.60;99.90;;;;;;4939890;29;20055;-83
2022/10/01 02:47:47;;;;;;;8.68;6.78;;;10.60;99.90;;;;;;4938386;29;20046;-84
2022/10/01 02:50:14;;;;;;;10.98;6.93;;;10.60;99.90;;;;;;4938608;29;20067;-83
2022/10/01 02:53:03;;;;;;;7.97;6.70;;;10.60;99.90;;;;;;4938329;29;20051;-83
2022/10/01 02:55:34;;;;;;;7.30;6.25;;;10.60;99.90;;;;;;4939189;29;20043;-84
2022/10/01 02:58:00;;;;;;;9.82;6.35;;;10.60;99.90;;;;;;4938507;29;20060;-81
2022/10/01 03:00:27;;;;;;;7.07;5.85;;;10.70;99.90;;;;;;4939254;29;20048;-85
2022/10/01 03:02:53;;;;;;;6.80;5.57;;;10.70;99.90;;;;;;4938317;29;20081;-84
2022/10/01 03:05:19;;;;;;;8.57;5.97;;;11.00;99.90;;;;;;4937909;29;20039;-85
2022/10/01 03:07:45;;;;;;;7.03;5.55;;;10.70;99.90;;;;;;4937795;29;20054;-83
2022/10/01 03:10:14;;;;;;;6.97;5.60;;;10.70;99.90;;;;;;4937794;29;20048;-83
2022/10/01 03:12:44;;;;;;;7.38;5.30;;;10.70;99.90;;;;;;4938168;29;20043;-85
2022/10/01 03:15:11;;;;;;;6.85;5.50;;;10.70;99.90;;;;;;4937578;29;20518;-85
2022/10/01 03:17:36;;;;;;;;;;;10.80;99.90;;;;;;4938507;29;20098;-84
2022/10/01 03:20:04;;;;;;;5.93;4.65;;;10.80;99.90;;;;;;4938760;29;19923;-83
2022/10/01 03:22:30;;;;;;;6.45;5.45;;;10.80;99.90;;;;;;4937716;29;20453;-84
2022/10/01 03:24:55;;;;;;;9.90;4.85;;;10.90;99.90;;;;;;4938315;29;20056;-84
2022/10/01 03:27:21;;;;;;;6.00;4.60;;;10.80;99.90;;;;;;4938843;29;20050;-82
2022/10/01 03:29:47;;;;;;;5.72;4.63;;;10.80;99.90;;;;;;4938255;29;20074;-84
2022/10/01 03:32:14;;;;;;;5.10;4.15;;;10.80;99.90;;;;;;4937474;29;20047;-84
2022/10/01 03:34:40;;;;;;;6.32;4.45;;;10.80;99.90;;;;;;4937137;29;20043;-84
2022/10/01 03:37:06;;;;;;;4.35;3.55;;;10.80;99.90;;;;;;4937692;29;20511;-84
2022/10/01 03:39:32;;;;;;;7.10;3.95;;;10.80;99.90;;;;;;4938123;29;20484;-84
2022/10/01 03:41:57;;;;;;;4.45;3.58;;;11.10;99.90;;;;;;4938552;29;20058;-84
2022/10/01 03:44:23;;;;;;;4.50;4.00;;;10.80;99.90;;;;;;4937670;29;20044;-84
2022/10/01 03:46:49;;;;;;;4.47;3.92;;;10.80;99.90;;;;;;4937460;29;20531;-84
2022/10/01 03:49:15;;;;;;;3.97;3.30;;;10.90;99.90;;;;;;4938474;29;20082;-85
2022/10/01 03:51:41;;;;;;;4.35;3.38;;;10.80;99.90;;;;;;4938534;29;20087;-85
2022/10/01 03:54:08;;;;;;;5.13;4.10;;;10.80;99.90;;;;;;4938405;29;20070;-81
2022/10/01 03:56:34;;;;;;;4.20;3.60;;;10.90;99.90;;;;;;4937096;29;20043;-84
2022/10/01 03:59:00;;;;;;;4.47;3.83;;;10.80;99.90;;;;;;4936790;29;20044;-82
2022/10/01 04:01:26;;;;;;;4.03;3.60;;;10.80;99.90;;;;;;4936947;29;20094;-83
2022/10/01 04:03:52;;;;;;;6.90;3.42;;;10.80;99.90;;;;;;4936923;29;20043;-84
2022/10/01 04:06:17;;;;;;;4.47;3.28;;;10.80;99.90;;;;;;4936717;29;20122;-86
2022/10/01 04:08:43;;;;;;;5.45;2.90;;;10.80;99.90;;;;;;4937883;29;20059;-86
2022/10/01 04:11:09;;;;;;;4.32;3.25;;;10.80;99.90;;;;;;4936796;29;20545;-83
2022/10/01 04:13:35;;;;;;;6.65;3.75;;;10.70;99.90;;;;;;4937871;29;20051;-84
2022/10/01 04:16:02;;;;;;;4.78;3.20;;;10.80;99.90;;;;;;4936727;29;20131;-83
2022/10/01 04:18:27;;;;;;;;;;;10.80;99.90;;;;;;4921629;29;20047;-84
2022/10/01 04:20:53;;;;;;;3.70;2.83;;;10.80;99.90;;;;;;4936592;29;19926;-84
2022/10/01 04:23:18;;;;;;;3.88;2.97;;;10.80;99.90;;;;;;4937646;29;20050;-83
2022/10/01 04:25:44;;;;;;;4.30;3.50;;;10.80;99.90;;;;;;4937616;29;20411;-83
2022/10/01 04:28:11;;;;;;;3.78;3.05;;;10.80;99.90;;;;;;4937523;29;20063;-85
2022/10/01 04:30:39;;;;;;;3.67;3.05;;;10.80;99.90;;;;;;4936975;29;20432;-82
2022/10/01 04:33:06;;;;;;;3.58;2.95;;;10.80;99.90;;;;;;4936313;29;20476;-85
2022/10/01 04:35:32;;;;;;;4.63;3.15;;;10.80;99.90;;;;;;4920547;29;20052;-84
2022/10/01 04:38:04;;;;;;;5.07;3.03;;;10.80;99.90;;;;;;4936410;29;20053;-84
2022/10/01 04:40:33;;;;;;;3.92;3.40;;;11.60;99.90;;;;;;4920832;29;20159;-85
2022/10/01 04:43:02;;;;;;;4.28;3.17;;;10.80;99.90;;;;;;4937008;29;20500;-82
2022/10/01 04:45:28;;;;;;;3.55;2.92;;;11.40;99.90;;;;;;4920497;29;20047;-85
2022/10/01 04:47:55;;;;;;;4.85;3.22;;;10.80;99.90;;;;;;4936702;29;20129;-85
2022/10/01 04:50:22;;;;;;;3.72;3.25;;;10.80;99.90;;;;;;4937168;29;20056;-84
2022/10/01 04:52:48;;;;;;;3.70;3.13;;;10.80;99.90;;;;;;4935963;29;20126;-84
2022/10/01 04:55:15;;;;;;;3.03;2.53;;;11.20;99.90;;;;;;4936157;29;20135;-83
2022/10/01 04:57:41;;;;;;;3.45;2.72;;;10.90;99.90;;;;;;4936136;29;20556;-85
2022/10/01 05:00:09;;;;;;;4.57;3.53;;;10.90;99.90;;;;;;4936411;29;20086;-85
2022/10/01 05:02:35;;;;;;;3.85;2.92;;;10.90;99.90;;;;;;4920403;29;20160;-83
2022/10/01 05:05:05;;;;;;;3.20;2.83;;;10.90;99.90;;;;;;4936039;29;20158;-84
2022/10/01 05:07:32;;;;;;;3.78;2.63;;;11.00;99.90;;;;;;4935872;29;20043;-84
2022/10/01 05:09:58;;;;;;;3.70;2.63;;;11.70;99.90;;;;;;4935945;29;20044;-83
2022/10/01 05:12:24;;;;;;;3.28;2.53;;;11.00;99.90;;;;;;4935656;29;20052;-83
2022/10/01 05:14:51;;;;;;;2.85;2.20;;;11.00;99.90;;;;;;4935711;29;20117;-84
2022/10/01 05:17:18;;;;;;;2.92;2.50;;;11.00;99.90;;;;;;4920098;29;20047;-85
2022/10/01 05:19:44;;;;;;;3.08;2.20;;;11.00;99.90;;;;;;4935745;29;20134;-84
2022/10/01 05:22:09;;;;;;;3.28;2.65;;;11.00;99.90;;;;;;4936651;29;20048;-83
2022/10/01 05:24:35;;;;;;;3.13;2.35;;;11.00;99.90;;;;;;4936587;29;20055;-86
2022/10/01 05:27:01;;;;;;;2.80;2.28;;;11.10;99.90;;;;;;4920245;29;20039;-85
2022/10/01 05:29:26;;;;;;;3.70;2.50;;;11.10;99.90;;;;;;4935799;29;20047;-86
2022/10/01 05:31:52;;;;;;;3.20;2.83;;;11.00;99.90;;;;;;4935481;29;20048;-86
2022/10/01 05:34:17;;;;;;;4.32;2.90;;;11.10;99.90;;;;;;4935459;29;20040;-85
2022/10/01 05:36:43;;;;;;;3.58;3.28;;;11.10;99.90;;;;;;4935379;29;20040;-88
2022/10/01 05:39:09;;;;;;;3.75;2.67;;;11.20;99.90;;;;;;4935748;29;20075;-86
2022/10/01 05:41:34;;;;;;;3.83;3.13;;;11.10;99.90;;;;;;4919449;29;20063;-85
2022/10/01 05:44:01;;;;;;;3.30;2.90;;;11.20;99.90;;;;;;4935928;29;20399;-85
2022/10/01 05:46:27;;;;;;;4.05;3.05;;;11.20;99.90;;;;;;4935671;29;20048;-86
2022/10/01 05:48:52;;;;;;;4.65;3.20;;;11.20;99.90;;;;;;4919918;29;20059;-86
2022/10/01 05:51:18;;;;;;;3.95;3.03;;;11.20;99.90;;;;;;4936591;29;20047;-86
2022/10/01 05:53:47;;;;;;;4.55;3.28;;;11.90;99.90;;;;;;4935266;29;20485;-84
2022/10/01 05:56:13;;;;;;;3.85;3.38;;;12.20;99.90;;;;;;4935439;29;20048;-87
2022/10/01 05:58:38;;;;;;;3.70;3.15;;;11.20;99.90;;;;;;4937355;29;20176;-87
2022/10/01 06:01:04;;;;;;;4.18;3.25;;;11.30;99.90;;;;;;4923523;29;20052;-83
2022/10/01 06:03:30;;;;;;;4.20;3.80;;;11.30;99.90;;;;;;4923421;29;20055;-85
2022/10/01 06:05:55;;;;;;;4.03;3.63;;;11.30;99.90;;;;;;4938894;29;20400;-87
2022/10/01 06:08:21;;;;;;;3.55;3.10;;;11.30;99.90;;;;;;4939810;29;20047;-85
2022/10/01 06:10:48;;;;;;;4.63;4.13;;;11.40;99.90;;;;;;4940099;29;20059;-84
2022/10/01 06:13:16;;;;;;;4.03;3.63;;;11.50;99.90;;;;;;4938870;29;20057;-85
2022/10/01 06:15:43;;;;;;;7.35;4.05;;;12.00;99.90;;;;;;4939054;29;20047;-87
2022/10/01 06:18:11;;;;;;;3.97;3.47;;;11.50;99.90;;;;;;4923056;29;20055;-87
2022/10/01 06:20:38;;;;;;;4.05;3.45;;;11.50;99.90;;;;;;4939016;29;20048;-88
2022/10/01 06:23:06;;;;;;;4.28;3.85;;;11.60;99.90;;;;;;4939085;29;20087;-84
2022/10/01 06:25:33;;;;;;;6.80;3.90;;;11.60;99.90;;;;;;4940151;29;20126;-82
2022/10/01 06:28:00;;;;;;;4.97;4.10;;;11.60;99.90;;;;;;4922756;29;20396;-82
2022/10/01 06:30:28;;;;;;;6.43;4.28;;;11.70;99.90;;;;;;4938878;29;20067;-81
2022/10/01 06:33:03;;;;;;;6.50;4.28;;;11.70;99.90;;;;;;4939629;29;20048;-80
2022/10/01 06:35:33;;;;;;;4.65;4.25;;;12.20;99.90;;;;;;4939606;29;20051;-83
2022/10/01 06:38:02;;;;;;;4.82;4.32;;;11.70;99.90;;;;;;4938619;29;20055;-80
2022/10/01 06:40:29;;;;;;;5.35;4.43;;;11.80;99.90;;;;;;4939321;29;20055;-82
2022/10/01 06:42:58;;;;;;;7.82;5.13;;;11.80;99.90;;;;;;4939531;29;20055;-81
2022/10/01 06:45:27;;;;;;;6.25;4.35;;;11.80;99.90;;;;;;4939446;29;20415;-81
2022/10/01 06:47:58;;;;;;;6.60;4.32;;;11.90;99.90;;;;;;4939400;29;20051;-86
2022/10/01 06:50:24;;;;;;;5.40;4.30;;;11.90;99.90;;;;;;4922608;29;20400;-81
2022/10/01 06:52:50;;;;;;;7.30;4.90;;;11.90;99.90;;;;;;4936598;29;20489;-85
2022/10/01 06:55:18;;;;;;;5.47;4.97;;;12.00;99.90;;;;;;4937514;29;20567;-84
2022/10/01 06:57:44;;;;;;;5.45;4.82;;;12.00;99.90;;;;;;4938602;29;20280;-78
2022/10/01 07:00:10;;;;;;;6.22;5.63;;;12.00;99.90;;;;;;4938977;29;20107;-81
2022/10/01 07:02:36;;;;;;;6.00;4.78;;;12.10;99.90;;;;;;4937682;29;20138;-81
2022/10/01 07:05:02;;;;;;;5.63;5.10;;;12.10;99.90;;;;;;4938765;29;20079;-82
2022/10/01 07:07:29;;;;;;;6.47;5.38;;;12.10;99.90;;;;;;4922282;29;20472;-80
2022/10/01 07:09:56;;;;;;;6.47;5.88;;;12.60;99.90;;;;;;4938400;29;20054;-84
2022/10/01 07:12:22;;;;;;;7.20;5.47;;;12.20;99.90;;;;;;4938864;29;20048;-81
2022/10/01 07:14:47;;;;;;;9.52;5.70;;;12.20;99.90;;;;;;4938883;29;20062;-82
2022/10/01 07:17:16;;;;;;;8.23;6.20;;;12.30;99.90;;;;;;4938056;29;20509;-83
2022/10/01 07:19:41;;;;;;;9.90;6.38;;;12.30;99.90;;;;;;4933002;29;20046;-85
2022/10/01 07:22:07;;;;;;;7.78;5.57;;;12.30;99.90;;;;;;4922083;29;20131;-81
2022/10/01 07:24:33;;;;;;;6.75;5.78;;;12.40;99.90;;;;;;4938720;29;20085;-86
2022/10/01 07:26:59;;;;;;;7.05;6.25;;;12.50;99.90;;;;;;4937697;29;20098;-83
2022/10/01 07:29:24;;;;;;;9.38;6.40;;;12.50;99.90;;;;;;4932559;29;20056;-86
2022/10/01 07:31:59;;;;;;;8.63;6.68;;;12.60;99.90;;;;;;4936359;29;20047;-84
2022/10/01 07:34:25;;;;;;;8.23;5.50;;;12.70;99.90;;;;;;4934794;29;20044;-82
2022/10/01 07:36:53;;;;;;;9.38;6.18;;;12.70;99.90;;;;;;4937375;29;20058;-81
2022/10/01 07:39:19;;;;;;;8.90;5.85;;;13.40;99.90;;;;;;4938333;29;20051;-81
2022/10/01 07:41:45;;;;;;;7.60;5.63;;;12.80;99.90;;;;;;4938514;29;20079;-82
2022/10/01 07:44:10;;;;;;;9.52;5.20;;;12.90;99.90;;;;;;4938395;29;20481;-82
2022/10/01 07:46:37;;;;;;;6.90;6.03;;;13.10;99.90;;;;;;4937131;29;20044;-81
2022/10/01 07:49:03;;;;;;;7.28;5.40;;;13.20;99.90;;;;;;4927344;29;20119;-82
2022/10/01 07:51:28;;;;;;;9.57;6.30;;;13.20;99.90;;;;;;4919324;29;20052;-80
2022/10/01 07:53:54;;;;;;;7.40;6.03;;;13.30;99.90;;;;;;4919273;29;20127;-81
2022/10/01 07:56:20;;;;;;;8.43;5.72;;;13.30;99.90;;;;;;4919883;29;20044;-80
2022/10/01 07:58:46;;;;;;;9.32;5.93;;;13.40;99.90;;;;;;4933586;29;20040;-79
2022/10/01 08:01:11;;;;;;;9.63;5.97;;;13.40;99.90;;;;;;4927642;29;20044;-81
2022/10/01 08:03:37;;;;;;;7.57;5.40;;;13.40;99.90;;;;;;4920071;29;20044;-85
2022/10/01 08:06:04;;;;;;;9.20;5.15;;;13.40;99.90;;;;;;4924908;29;20551;-86
2022/10/01 08:08:30;;;;;;;10.57;4.93;;;13.40;99.90;;;;;;4921292;29;20059;-87
2022/10/01 08:10:56;;;;;;;9.60;4.88;;;13.50;99.90;;;;;;4936733;29;20044;-86
2022/10/01 08:13:24;;;;;;;7.18;5.18;;;13.60;99.90;;;;;;4936939;29;20043;-82
2022/10/01 08:15:54;;;;;;;10.57;5.07;;;13.60;99.90;;;;;;4938402;29;20106;-86
2022/10/01 08:18:20;;;;;;;9.18;4.78;;;13.70;99.90;;;;;;4937575;29;20480;-78
2022/10/01 08:20:46;;;;;;;8.35;4.50;;;13.80;99.90;;;;;;4936517;29;20070;-77
2022/10/01 08:23:13;;;;;;;8.00;4.38;;;13.90;99.90;;;;;;4936043;29;20040;-78
2022/10/01 08:25:40;;;;;;;7.68;4.10;;;14.00;99.90;;;;;;4937344;29;20408;-78
2022/10/01 08:28:08;;;;;;;8.65;3.78;;;14.00;99.90;;;;;;4937903;29;20044;-80
2022/10/01 08:30:38;;;;;;;9.70;3.83;;;14.10;99.90;;;;;;4937506;29;20055;-79
2022/10/01 08:33:04;;;;;;;6.63;3.45;;;14.20;99.90;;;;;;4926881;29;20127;-80
2022/10/01 08:35:29;;;;;;;13.30;3.77;;;14.20;99.90;;;;;;4937608;29;20103;-78
2022/10/01 08:38:00;;;;;;;5.25;3.30;;;14.30;99.90;;;;;;4933097;29;20378;-79
2022/10/01 08:40:26;;;;;;;7.70;3.70;;;14.40;99.90;;;;;;4917943;29;20087;-79
2022/10/01 08:43:27;;;;;;;8.88;3.88;;;14.40;99.90;;;;;;5091604;27;20966;-80
2022/10/01 08:45:57;;;;;;;8.93;3.80;;;14.50;99.90;;;;;;5089030;28;20052;-77
2022/10/01 08:48:30;;;;;;;7.38;3.63;;;14.60;99.90;;;;;;5088270;28;20430;-81
2022/10/01 08:51:17;;;;;;;8.45;3.50;;;14.90;99.90;;;;;;5090580;28;20040;-77
2022/10/01 08:54:11;;;;;;;8.80;3.70;;;14.80;99.90;;;;;;5091317;28;20542;-80
2022/10/01 08:56:43;;;;;;;8.10;3.30;;;15.00;99.90;;;;;;5091083;28;20051;-77
2022/10/01 08:59:36;;;;;;;11.70;3.25;;;15.40;99.90;;;;;;5091051;28;20044;-78
2022/10/01 09:02:33;;;;;;;7.47;2.88;;;15.20;99.90;;;;;;5091366;28;20063;-77
2022/10/01 09:05:01;;;;;;;8.02;2.78;;;15.30;99.90;;;;;;5090341;28;20060;-76
2022/10/01 09:07:38;;;;;;;9.38;2.47;;;15.40;99.90;;;;;;5090826;28;20040;-80
2022/10/01 09:10:23;;;;;;;10.60;3.05;;;15.50;99.90;;;;;;5091256;28;20404;-78
2022/10/01 09:13:12;;;;;;;8.73;2.78;;;15.50;99.90;;;;;;5090953;28;20040;-80
2022/10/01 09:16:01;;;;;;;9.57;2.45;;;15.40;99.90;;;;;;5090853;28;20392;-81
2022/10/01 09:18:48;;;;;;;8.82;2.15;;;15.50;99.90;;;;;;5090705;28;20465;-74
2022/10/01 09:21:37;;;;;;;10.48;2.58;;;15.50;99.90;;;;;;5089958;28;20067;-79
2022/10/01 09:24:11;;;;;;;5.32;2.05;;;15.40;99.90;;;;;;5061858;28;20059;-82
2022/10/01 09:26:41;;;;;;;8.95;2.22;;;15.50;99.90;;;;;;5106146;28;20083;-83
2022/10/01 09:29:16;;;;;;;5.97;2.00;;;15.70;99.90;;;;;;5072761;28;20048;-81
2022/10/01 09:31:46;;;;;;;10.25;2.58;;;15.60;99.90;;;;;;5090134;28;20537;-77
2022/10/01 09:34:14;;;;;;;6.93;1.60;;;15.60;99.90;;;;;;5089407;28;20070;-80
2022/10/01 09:36:51;;;;;;;5.90;1.88;;;15.60;99.90;;;;;;5088889;28;20127;-79
2022/10/01 09:39:58;;;;;;;9.27;2.30;;;15.60;99.90;;;;;;5106908;28;20513;-79
2022/10/01 09:42:28;;;;;;;7.25;2.20;;;15.60;99.90;;;;;;5089903;28;20520;-82
2022/10/01 09:44:54;;;;;;;11.23;2.05;;;15.60;99.90;;;;;;5089032;28;20102;-78
2022/10/01 09:47:22;;;;;;;6.50;1.80;;;15.60;99.90;;;;;;5102837;28;20044;-80
2022/10/01 09:49:48;;;;;;;6.50;1.65;;;15.50;99.90;;;;;;5088723;28;20403;-79
2022/10/01 09:52:30;;;;;;;7.88;1.70;;;15.50;99.90;;;;;;5087573;28;20041;-77
2022/10/01 09:55:01;;;;;;;5.88;1.48;;;15.50;99.90;;;;;;5075321;28;20044;-80
2022/10/01 09:57:46;;;;;;;6.03;1.90;;;15.50;99.90;;;;;;5075144;28;20094;-77
2022/10/01 10:00:21;;;;;;;5.57;1.85;;;15.60;99.90;;;;;;5075520;28;20048;-77
2022/10/01 10:02:49;;;;;;;6.18;1.55;;;15.60;99.90;;;;;;5076028;28;20039;-81
2022/10/01 10:05:20;;;;;;;7.53;1.80;;;15.70;99.90;;;;;;5074891;28;20032;-78
2022/10/01 10:08:03;;;;;;;5.10;1.45;;;16.00;99.90;;;;;;5074800;28;20041;-77
2022/10/01 10:10:34;;;;;;;5.05;1.50;;;16.20;99.90;;;;;;5076012;28;20055;-77
2022/10/01 10:13:30;;;;;;;4.90;1.50;;;16.50;99.90;;;;;;5075695;28;20086;-77
2022/10/01 10:15:58;;;;;;;4.63;1.08;;;16.60;99.90;;;;;;5070284;28;20063;-78
2022/10/01 10:18:34;;;;;;;5.43;1.30;;;16.70;99.90;;;;;;5075798;28;20048;-80
2022/10/01 10:21:03;;;;;;;5.07;1.33;;;16.90;99.90;;;;;;5074217;28;20127;-84
2022/10/01 10:23:30;;;;;;;3.42;1.02;;;17.10;99.90;;;;;;5058001;28;20087;-81
2022/10/01 10:25:59;;;;;;;;;;;17.30;99.90;;;;;;5075401;28;20045;-78
2022/10/01 10:28:26;;;;;;;5.22;1.30;;;17.60;99.90;;;;;;5076036;28;20342;-81
2022/10/01 10:30:54;;;;;;;4.10;1.40;;;17.70;99.90;;;;;;5075597;28;20369;-77
2022/10/01 10:33:21;;;;;;;3.85;1.33;;;17.80;99.90;;;;;;5074060;28;20041;-80
2022/10/01 10:36:00;;;;;;;5.78;1.52;;;18.00;99.90;;;;;;5058215;28;20048;-80
2022/10/01 10:38:31;;;;;;;5.97;1.23;;;18.10;99.90;;;;;;5074910;28;20044;-77
2022/10/01 10:40:57;;;;;;;5.43;1.50;;;18.30;99.90;;;;;;5075418;28;20056;-79
2022/10/01 10:43:28;;;;;;;7.47;1.50;;;18.60;99.90;;;;;;5075352;28;20044;-84
2022/10/01 10:45:55;;;;;;;6.55;1.48;;;18.20;99.90;;;;;;5058631;28;20041;-82
2022/10/01 10:48:27;;;;;;;6.97;1.65;;;18.10;99.90;;;;;;5058687;28;20433;-77
2022/10/01 10:50:59;;;;;;;7.05;1.70;;;17.80;99.90;;;;;;5077274;28;20401;-78
2022/10/01 10:53:27;;;;;;;9.93;1.70;;;17.60;99.90;;;;;;5080218;28;20041;-77
2022/10/01 10:56:00;;;;;;;5.75;1.83;;;17.70;99.90;;;;;;5075311;28;20044;-78
2022/10/01 10:58:32;;;;;;;5.25;1.40;;;16.90;99.90;;;;;;5075228;28;20044;-78
2022/10/01 11:01:10;;;;;;;4.05;1.33;;;16.60;99.90;;;;;;5075018;28;20090;-76
2022/10/01 11:03:46;;;;;;;5.75;1.60;;;16.30;99.90;;;;;;5075560;28;20098;-78
2022/10/01 11:06:14;;;;;;;11.65;2.10;;;16.00;99.90;;;;;;5074495;28;20373;-77
2022/10/01 11:08:41;;;;;;;4.70;1.38;;;15.70;99.90;;;;;;5075032;28;20072;-77
2022/10/01 11:11:12;;;;;;;;;;;15.50;99.90;;;;;;5091308;28;20048;-78
2022/10/01 11:13:58;;;;;;;4.55;1.17;;;15.30;99.90;;;;;;5057564;28;19926;-76
2022/10/01 11:16:43;;;;;;;3.60;1.20;;;15.00;99.90;;;;;;5074765;28;20434;-80
2022/10/01 11:19:43;;;;;;;5.22;1.30;;;14.80;99.90;;;;;;5074902;28;20045;-78
2022/10/01 11:22:37;;;;;;;5.05;1.50;;;14.40;99.90;;;;;;5055773;28;20051;-77
2022/10/01 11:25:20;;;;;;;5.28;1.20;;;14.30;99.90;;;;;;5073637;28;20045;-77
2022/10/01 11:28:05;;;;;;;6.47;1.35;;;14.10;99.90;;;;;;5074531;28;20076;-81
2022/10/01 11:30:46;;;;;;;4.30;1.40;;;13.90;99.90;;;;;;5073848;28;20135;-81
2022/10/01 11:33:35;;;;;;;6.10;1.38;;;13.90;99.90;;;;;;5074560;28;20048;-81
2022/10/01 11:36:16;;;;;;;4.53;1.38;;;13.80;99.90;;;;;;5074542;28;20044;-80
2022/10/01 11:38:58;;;;;;;3.85;1.52;;;13.90;99.90;;;;;;5090650;28;20044;-80
2022/10/01 11:41:33;;;;;;;6.15;1.63;;;14.00;99.90;;;;;;5073268;28;20048;-80
2022/10/01 11:44:25;;;;;;;5.43;1.83;;;14.20;99.90;;;;;;5073329;28;20044;-82
2022/10/01 11:47:00;;;;;;;6.85;1.80;;;14.40;99.90;;;;;;5074372;28;20048;-80
2022/10/01 11:49:34;;;;;;;4.38;1.50;;;14.30;99.90;;;;;;5074188;28;20044;-79
2022/10/01 11:52:19;;;;;;;6.43;1.60;;;14.40;99.90;;;;;;5074012;28;20139;-80
2022/10/01 12:00:57;;;;;;;4.82;1.38;;;14.40;99.90;;;;;;5074205;28;20396;-77
2022/10/01 12:03:27;;;;;;;5.57;1.27;;;14.70;99.90;;;;;;5074018;28;20044;-77
2022/10/01 12:05:55;;;;;;;4.78;1.60;;;14.50;99.90;;;;;;5073808;28;20049;-79
2022/10/01 12:08:26;;;;;;;4.65;1.30;;;14.60;99.90;;;;;;5073937;28;20056;-78
2022/10/01 12:11:10;;;;;;;3.42;1.17;;;14.60;99.90;;;;;;5074064;28;20073;-77
2022/10/01 12:13:45;;;;;;;5.32;1.60;;;14.70;99.90;;;;;;5073946;28;20130;-78
2022/10/01 12:16:53;;;;;;;7.28;1.80;;;14.90;99.90;;;;;;5073606;28;20048;-76
2022/10/01 12:19:23;;;;;;;7.63;1.83;;;15.10;99.90;;;;;;5051603;28;20055;-77
2022/10/01 12:22:14;;;;;;;5.97;1.65;;;15.30;99.90;;;;;;5069895;28;20048;-77
2022/10/01 12:24:44;;;;;;;6.18;1.65;;;15.40;99.90;;;;;;5073806;28;20119;-79
2022/10/01 12:27:18;;;;;;;6.32;1.55;;;15.60;99.90;;;;;;5073515;28;20473;-78
2022/10/01 12:29:59;;;;;;;7.95;2.13;;;15.70;99.90;;;;;;5056168;28;20396;-78
2022/10/01 12:33:00;;;;;;;8.05;1.92;;;15.80;99.90;;;;;;5073590;28;20051;-78
2022/10/01 12:36:14;;;;;;;7.50;1.65;;;15.80;99.90;;;;;;5053764;28;20053;-78
2022/10/01 12:38:58;;;;;;;7.07;1.90;;;15.90;99.90;;;;;;5067274;28;20091;-78
2022/10/01 12:41:50;;;;;;;7.40;1.90;;;15.90;99.90;;;;;;5073336;28;20044;-78
2022/10/01 12:44:38;;;;;;;8.40;1.95;;;15.80;99.90;;;;;;5073659;28;20047;-78
2022/10/01 12:47:13;;;;;;;5.82;1.63;;;15.60;99.90;;;;;;5073522;28;20053;-80
2022/10/01 12:50:04;;;;;;;9.48;2.40;;;15.50;99.90;;;;;;5073991;28;20056;-78
2022/10/01 12:53:01;;;;;;;6.15;1.80;;;15.40;99.90;;;;;;5070781;28;20127;-78
2022/10/01 12:55:54;;;;;;;7.60;1.88;;;15.50;99.90;;;;;;5073488;28;20067;-77
2022/10/01 12:58:52;;;;;;;10.55;2.40;;;15.60;99.90;;;;;;5073708;28;20435;-77
2022/10/01 13:01:36;;;;;;;8.45;2.15;;;15.60;99.90;;;;;;5073477;28;20111;-77
2022/10/01 13:04:11;;;;;;;9.82;2.80;;;15.60;99.90;;;;;;5073869;28;20053;-77
2022/10/01 13:06:47;;;;;;;10.88;3.40;;;15.60;99.90;;;;;;5072926;28;20051;-77
2022/10/01 13:09:18;;;;;;;15.90;7.00;;;15.80;99.90;;;;;;5072519;28;20124;-78
2022/10/01 13:12:08;;;;;;;10.93;3.85;;;15.60;99.90;;;;;;5073364;28;20387;-78
2022/10/01 13:14:34;;;;;;;11.65;5.15;;;15.60;99.90;;;;;;5073298;28;20075;-78
2022/10/01 13:17:18;;;;;;;9.27;2.72;;;15.60;99.90;;;;;;5072648;28;20109;-78